createdAt,value
2017-10-17T00:00:03.561Z,11.95
2017-10-17T00:02:31.060Z,11.97
2017-10-17T00:04:58.616Z,11.97
2017-10-17T00:07:26.116Z,11.92
2017-10-17T00:09:53.699Z,11.87
2017-10-17T00:12:21.187Z,11.84
2017-10-17T00:14:48.742Z,11.87
2017-10-17T00:17:16.258Z,11.83
2017-10-17T00:19:43.869Z,11.76
2017-10-17T00:22:11.333Z,11.70
2017-10-17T00:24:38.864Z,11.70
2017-10-17T00:27:06.345Z,11.69
2017-10-17T00:29:33.880Z,11.65
2017-10-17T00:32:02.201Z,11.65
2017-10-17T00:34:29.686Z,11.65
2017-10-17T00:36:57.397Z,11.62
2017-10-17T00:39:24.962Z,11.63
2017-10-17T00:41:52.511Z,11.64
2017-10-17T00:44:20.037Z,11.66
2017-10-17T00:46:47.666Z,11.69
2017-10-17T00:49:15.140Z,11.71
2017-10-17T00:51:42.623Z,11.67
2017-10-17T00:54:10.134Z,11.59
2017-10-17T00:56:37.703Z,11.54
2017-10-17T00:59:05.218Z,11.53
2017-10-17T01:01:32.754Z,11.47
2017-10-17T01:04:00.252Z,11.43
2017-10-17T01:06:27.804Z,11.38
2017-10-17T01:08:55.361Z,11.38
2017-10-17T01:11:22.825Z,11.40
2017-10-17T01:13:50.345Z,11.37
2017-10-17T01:16:17.874Z,11.35
2017-10-17T01:18:45.400Z,11.32
2017-10-17T01:21:15.822Z,11.30
2017-10-17T01:23:48.677Z,11.29
2017-10-17T01:26:19.723Z,11.24
2017-10-17T01:28:47.296Z,11.25
2017-10-17T01:31:14.808Z,11.27
2017-10-17T01:46:40.332Z,11.27
2017-10-17T01:49:09.588Z,11.41
2017-10-17T01:51:41.495Z,11.37
2017-10-17T01:54:22.629Z,11.37
2017-10-17T01:56:50.149Z,11.38
2017-10-17T01:59:19.376Z,11.36
2017-10-17T02:01:47.006Z,11.34
2017-10-17T02:04:14.579Z,11.35
2017-10-17T02:06:42.090Z,11.33
2017-10-17T02:09:09.614Z,11.21
2017-10-17T02:11:37.141Z,11.19
2017-10-17T02:14:04.620Z,11.17
2017-10-17T02:16:32.506Z,11.16
2017-10-17T02:19:15.813Z,11.13
2017-10-17T02:21:59.871Z,11.11
2017-10-17T02:24:32.871Z,11.10
2017-10-17T02:27:00.382Z,11.11
2017-10-17T02:29:28.528Z,11.00
2017-10-17T02:31:56.123Z,10.95
2017-10-17T02:34:26.386Z,10.86
2017-10-17T02:36:53.997Z,10.81
2017-10-17T02:39:21.571Z,10.81
2017-10-17T02:41:49.114Z,10.77
2017-10-17T02:44:16.620Z,10.80
2017-10-17T02:46:44.903Z,10.72
2017-10-17T02:49:13.145Z,10.61
2017-10-17T02:51:41.437Z,10.54
2017-10-17T02:54:08.935Z,10.52
2017-10-17T02:56:36.462Z,10.55
2017-10-17T02:59:07.804Z,10.66
2017-10-17T03:01:48.059Z,10.62
2017-10-17T03:04:26.065Z,10.55
2017-10-17T03:06:53.614Z,10.50
2017-10-17T03:09:21.146Z,10.46
2017-10-17T03:11:48.693Z,10.38
2017-10-17T03:14:20.725Z,10.29
2017-10-17T03:16:48.258Z,10.36
2017-10-17T03:19:15.789Z,10.41
2017-10-17T03:21:55.891Z,10.39
2017-10-17T03:24:27.069Z,10.32
2017-10-17T03:26:54.562Z,10.39
2017-10-17T03:29:22.063Z,10.38
2017-10-17T03:31:49.549Z,10.23
2017-10-17T03:34:27.962Z,10.11
2017-10-17T03:40:15.966Z,9.95
2017-10-17T03:42:45.857Z,9.88
2017-10-17T03:45:18.973Z,9.91
2017-10-17T03:48:07.105Z,9.81
2017-10-17T03:50:36.877Z,9.72
2017-10-17T03:56:03.250Z,9.60
2017-10-17T03:58:34.445Z,9.55
2017-10-17T04:01:01.905Z,9.51
2017-10-17T04:03:36.869Z,9.49
2017-10-17T04:09:09.812Z,9.50
2017-10-17T04:11:37.279Z,9.44
2017-10-17T04:17:03.750Z,9.38
2017-10-17T04:19:35.866Z,9.36
2017-10-17T04:22:05.141Z,9.37
2017-10-17T04:24:41.972Z,9.33
2017-10-17T04:27:15.019Z,9.29
2017-10-17T04:29:48.124Z,9.24
2017-10-17T04:32:15.616Z,9.19
2017-10-17T04:34:53.087Z,9.18
2017-10-17T04:37:31.451Z,9.23
2017-10-17T04:39:58.942Z,9.23
2017-10-17T04:42:28.867Z,9.18
2017-10-17T04:48:28.157Z,9.29
2017-10-17T04:51:06.269Z,9.21
2017-10-17T04:56:36.424Z,9.10
2017-10-17T04:59:23.622Z,9.09
2017-10-17T05:01:53.032Z,9.06
2017-10-17T05:04:50.967Z,9.06
2017-10-17T05:07:35.086Z,9.06
2017-10-17T05:10:07.026Z,9.07
2017-10-17T05:12:35.898Z,9.10
2017-10-17T05:15:04.174Z,9.16
2017-10-17T05:17:39.188Z,9.24
2017-10-17T05:20:27.311Z,9.27
2017-10-17T05:23:03.370Z,9.34
2017-10-17T05:25:31.641Z,9.37
2017-10-17T05:28:10.925Z,9.40
2017-10-17T05:30:47.324Z,9.45
2017-10-17T05:36:37.119Z,9.56
2017-10-17T05:39:06.367Z,9.58
2017-10-17T05:41:33.913Z,9.64
2017-10-17T05:44:15.234Z,9.65
2017-10-17T05:46:42.714Z,9.67
2017-10-17T05:49:25.809Z,9.69
2017-10-17T05:51:53.298Z,9.67
2017-10-17T05:54:20.769Z,9.66
2017-10-17T05:56:48.284Z,9.69
2017-10-17T05:59:15.799Z,9.70
2017-10-17T06:01:43.285Z,9.73
2017-10-17T06:04:10.797Z,9.78
2017-10-17T06:06:38.254Z,9.82
2017-10-17T06:09:05.716Z,9.87
2017-10-17T06:11:33.220Z,9.98
2017-10-17T06:14:00.704Z,10.05
2017-10-17T06:16:28.204Z,10.13
2017-10-17T06:18:55.673Z,10.23
2017-10-17T06:21:23.167Z,10.32
2017-10-17T06:23:50.647Z,10.40
2017-10-17T06:26:18.159Z,10.47
2017-10-17T06:28:45.638Z,10.59
2017-10-17T06:31:13.096Z,10.70
2017-10-17T06:33:40.598Z,10.78
2017-10-17T06:38:41.755Z,10.90
2017-10-17T06:41:09.253Z,10.97
2017-10-17T06:43:36.726Z,11.06
2017-10-17T06:46:04.218Z,11.08
2017-10-17T06:48:31.740Z,11.23
2017-10-17T06:50:59.212Z,11.29
2017-10-17T06:53:26.693Z,11.34
2017-10-17T06:55:54.182Z,11.38
2017-10-17T06:58:21.645Z,11.47
2017-10-17T07:00:49.123Z,11.52
2017-10-17T07:03:16.602Z,11.59
2017-10-17T07:05:44.089Z,11.70
2017-10-17T07:08:11.599Z,11.74
2017-10-17T07:10:39.055Z,11.81
2017-10-17T07:13:06.736Z,11.92
2017-10-17T07:15:34.232Z,12.04
2017-10-17T07:18:01.703Z,12.12
2017-10-17T07:20:29.190Z,12.18
2017-10-17T07:22:56.705Z,12.24
2017-10-17T07:25:24.169Z,12.34
2017-10-17T07:27:51.640Z,12.43
2017-10-17T07:30:19.148Z,12.59
2017-10-17T07:32:46.616Z,12.59
2017-10-17T07:35:14.074Z,12.69
2017-10-17T07:37:41.560Z,12.73
2017-10-17T07:40:09.009Z,12.79
2017-10-17T07:42:36.461Z,12.90
2017-10-17T07:45:04.011Z,12.97
2017-10-17T07:47:31.477Z,13.10
2017-10-17T07:49:58.941Z,13.19
2017-10-17T07:52:26.440Z,13.17
2017-10-17T07:54:53.954Z,13.37
2017-10-17T07:57:21.430Z,13.45
2017-10-17T07:59:48.916Z,13.48
2017-10-17T08:02:16.397Z,13.63
2017-10-17T08:04:43.861Z,13.71
2017-10-17T08:07:11.355Z,13.82
2017-10-17T08:09:38.878Z,13.92
2017-10-17T08:12:06.351Z,14.02
2017-10-17T08:14:33.847Z,14.12
2017-10-17T08:17:01.322Z,14.27
2017-10-17T08:19:28.803Z,14.36
2017-10-17T08:21:56.294Z,14.46
2017-10-17T08:24:23.767Z,14.49
2017-10-17T08:26:51.298Z,14.58
2017-10-17T08:29:18.783Z,14.69
2017-10-17T08:31:46.342Z,14.79
2017-10-17T08:34:13.809Z,14.86
2017-10-17T08:36:41.305Z,15.07
2017-10-17T08:39:08.766Z,14.95
2017-10-17T08:41:36.229Z,14.99
2017-10-17T08:44:03.707Z,15.04
2017-10-17T08:46:31.169Z,15.20
2017-10-17T08:48:58.659Z,15.23
2017-10-17T08:51:26.152Z,15.25
2017-10-17T08:53:53.656Z,15.43
2017-10-17T08:56:21.161Z,15.41
2017-10-17T08:58:48.660Z,15.37
2017-10-17T09:01:16.148Z,15.52
2017-10-17T09:03:43.622Z,15.55
2017-10-17T09:06:11.097Z,15.69
2017-10-17T09:08:38.568Z,15.61
2017-10-17T09:11:06.035Z,15.67
2017-10-17T09:13:33.507Z,15.81
2017-10-17T09:16:00.975Z,15.91
2017-10-17T09:18:28.474Z,16.00
2017-10-17T09:20:55.972Z,16.13
2017-10-17T09:23:23.474Z,16.24
2017-10-17T09:25:50.943Z,16.25
2017-10-17T09:28:18.422Z,16.37
2017-10-17T09:30:45.899Z,16.46
2017-10-17T09:33:13.380Z,16.50
2017-10-17T09:35:40.880Z,16.65
2017-10-17T09:38:08.344Z,16.69
2017-10-17T09:40:35.817Z,16.70
2017-10-17T09:43:03.304Z,16.71
2017-10-17T09:45:30.753Z,16.77
2017-10-17T09:47:58.397Z,16.74
2017-10-17T09:50:25.990Z,16.83
2017-10-17T09:52:53.462Z,16.86
2017-10-17T09:55:20.925Z,16.83
2017-10-17T09:57:48.919Z,16.91
2017-10-17T10:00:16.420Z,16.87
2017-10-17T10:02:43.886Z,16.91
2017-10-17T10:05:11.392Z,16.87
2017-10-17T10:07:38.871Z,16.82
2017-10-17T10:10:06.358Z,16.96
2017-10-17T10:12:33.910Z,17.04
2017-10-17T10:15:01.420Z,16.99
2017-10-17T10:17:28.965Z,16.95
2017-10-17T10:19:56.494Z,17.01
2017-10-17T10:22:23.978Z,17.10
2017-10-17T10:24:51.466Z,17.20
2017-10-17T10:27:18.989Z,17.17
2017-10-17T10:29:46.458Z,17.19
2017-10-17T10:32:13.978Z,17.19
2017-10-17T10:34:41.465Z,17.11
2017-10-17T10:37:08.934Z,16.98
2017-10-17T10:39:36.425Z,16.98
2017-10-17T10:42:03.907Z,16.99
2017-10-17T10:44:31.364Z,16.89
2017-10-17T10:46:58.831Z,17.05
2017-10-17T10:49:26.300Z,17.03
2017-10-17T10:51:53.806Z,17.12
2017-10-17T10:54:21.285Z,17.31
2017-10-17T10:56:48.780Z,17.23
2017-10-17T10:59:16.284Z,17.09
2017-10-17T11:01:43.855Z,17.07
2017-10-17T11:04:11.348Z,17.15
2017-10-17T11:06:38.878Z,17.20
2017-10-17T11:09:06.385Z,17.30
2017-10-17T11:11:33.858Z,17.38
2017-10-17T11:14:01.338Z,17.40
2017-10-17T11:16:28.811Z,17.37
2017-10-17T11:18:56.286Z,17.47
2017-10-17T11:21:23.787Z,17.55
2017-10-17T11:23:51.439Z,17.71
2017-10-17T11:26:18.925Z,17.74
2017-10-17T11:28:46.388Z,17.81
2017-10-17T11:31:13.849Z,17.77
2017-10-17T11:33:41.352Z,17.82
2017-10-17T11:36:08.813Z,17.83
2017-10-17T11:38:36.290Z,17.94
2017-10-17T11:41:15.482Z,18.01
2017-10-17T11:43:53.933Z,18.10
2017-10-17T11:46:21.455Z,18.21
2017-10-17T11:48:48.952Z,18.31
2017-10-17T11:51:16.421Z,18.51
2017-10-17T11:53:43.896Z,18.56
2017-10-17T11:56:11.369Z,18.59
2017-10-17T11:58:38.836Z,18.72
2017-10-17T12:01:06.320Z,18.90
2017-10-17T12:03:33.857Z,18.99
2017-10-17T12:06:01.313Z,19.10
2017-10-17T12:08:28.852Z,19.22
2017-10-17T12:10:56.322Z,19.33
2017-10-17T12:13:23.805Z,19.47
2017-10-17T12:15:51.300Z,19.48
2017-10-17T12:18:18.784Z,19.62
2017-10-17T12:20:46.285Z,19.68
2017-10-17T12:23:13.823Z,19.82
2017-10-17T12:25:41.336Z,20.03
2017-10-17T12:28:08.840Z,19.96
2017-10-17T12:30:36.309Z,20.08
2017-10-17T12:33:03.804Z,20.15
2017-10-17T12:35:31.328Z,20.34
2017-10-17T12:37:58.843Z,20.49
2017-10-17T12:40:26.346Z,20.62
2017-10-17T12:42:53.847Z,20.79
2017-10-17T12:45:21.336Z,20.81
2017-10-17T12:47:48.852Z,20.86
2017-10-17T12:50:16.353Z,21.07
2017-10-17T12:52:43.913Z,21.13
2017-10-17T12:55:11.383Z,21.26
2017-10-17T12:57:38.865Z,21.35
2017-10-17T13:00:06.377Z,21.54
2017-10-17T13:02:33.858Z,21.61
2017-10-17T13:05:01.353Z,21.84
2017-10-17T13:07:28.843Z,21.90
2017-10-17T13:09:56.330Z,21.93
2017-10-17T13:12:23.814Z,22.04
2017-10-17T13:14:51.412Z,22.09
2017-10-17T13:17:18.887Z,22.25
2017-10-17T13:19:46.405Z,22.36
2017-10-17T13:22:13.925Z,22.49
2017-10-17T13:24:41.413Z,22.61
2017-10-17T13:27:08.890Z,22.73
2017-10-17T13:29:36.401Z,22.87
2017-10-17T13:32:03.884Z,22.87
2017-10-17T13:34:31.353Z,23.04
2017-10-17T13:36:58.882Z,23.18
2017-10-17T13:39:26.352Z,23.28
2017-10-17T13:41:53.822Z,23.36
2017-10-17T13:44:21.301Z,23.35
2017-10-17T13:46:48.803Z,23.39
2017-10-17T13:49:16.284Z,23.45
2017-10-17T13:51:43.756Z,23.73
2017-10-17T13:54:11.316Z,24.24
2017-10-17T13:56:38.819Z,24.64
2017-10-17T13:59:06.300Z,25.10
2017-10-17T14:01:33.768Z,25.83
2017-10-17T14:04:01.255Z,26.57
2017-10-17T14:06:28.751Z,27.06
2017-10-17T14:08:56.236Z,27.42
2017-10-17T14:11:23.713Z,27.34
2017-10-17T14:13:51.260Z,27.44
2017-10-17T14:16:18.741Z,27.74
2017-10-17T14:18:46.229Z,28.14
2017-10-17T14:21:13.773Z,28.48
2017-10-17T14:23:41.269Z,28.83
2017-10-17T14:26:08.755Z,28.73
2017-10-17T14:28:36.334Z,28.81
2017-10-17T14:31:03.830Z,28.86
2017-10-17T14:33:31.312Z,28.53
2017-10-17T14:35:58.803Z,28.76
2017-10-17T14:38:26.286Z,28.46
2017-10-17T14:40:53.765Z,28.07
2017-10-17T14:43:21.243Z,27.49
2017-10-17T14:45:48.737Z,27.03
2017-10-17T14:48:16.229Z,26.80
2017-10-17T14:50:43.723Z,26.87
2017-10-17T14:53:11.192Z,27.47
2017-10-17T14:55:38.723Z,27.94
2017-10-17T14:58:06.221Z,28.32
2017-10-17T15:00:33.677Z,28.27
2017-10-17T15:03:01.138Z,28.08
2017-10-17T15:05:28.703Z,27.20
2017-10-17T15:07:56.347Z,26.76
2017-10-17T15:10:23.823Z,26.22
2017-10-17T15:12:51.313Z,25.91
2017-10-17T15:15:18.824Z,25.44
2017-10-17T15:17:46.327Z,25.02
2017-10-17T15:20:13.816Z,24.47
2017-10-17T15:22:41.278Z,23.84
2017-10-17T15:25:08.804Z,23.34
2017-10-17T15:27:36.313Z,22.79
2017-10-17T15:30:03.773Z,22.58
2017-10-17T15:32:31.266Z,22.54
2017-10-17T15:34:59.243Z,22.46
2017-10-17T15:37:26.732Z,22.07
2017-10-17T15:39:54.229Z,21.67
2017-10-17T15:42:21.720Z,21.24
2017-10-17T15:44:49.184Z,20.79
2017-10-17T15:47:16.668Z,20.54
2017-10-17T15:49:44.169Z,20.22
2017-10-17T15:52:11.679Z,19.89
2017-10-17T15:54:39.152Z,19.67
2017-10-17T15:57:06.636Z,19.41
2017-10-17T15:59:34.136Z,19.15
2017-10-17T16:02:01.648Z,18.91
2017-10-17T16:04:29.199Z,18.71
2017-10-17T16:06:56.673Z,18.50
2017-10-17T16:09:24.175Z,18.32
2017-10-17T16:11:51.846Z,18.16
2017-10-17T16:14:19.334Z,17.96
2017-10-17T16:16:46.802Z,17.78
2017-10-17T16:19:14.289Z,17.62
2017-10-17T16:21:41.799Z,17.49
2017-10-17T16:24:09.708Z,17.34
2017-10-17T16:26:37.210Z,17.19
2017-10-17T16:29:04.733Z,17.05
2017-10-17T16:31:32.202Z,16.98
2017-10-17T16:33:59.690Z,16.87
2017-10-17T16:36:27.157Z,16.79
2017-10-17T16:41:28.341Z,16.57
2017-10-17T16:43:55.829Z,16.50
2017-10-17T16:46:23.318Z,16.43
2017-10-17T16:48:50.795Z,16.35
2017-10-17T16:51:18.298Z,16.27
2017-10-17T16:53:45.800Z,16.23
2017-10-17T16:56:13.352Z,16.19
2017-10-17T16:58:40.826Z,16.12
2017-10-17T17:01:08.311Z,16.04
2017-10-17T17:16:30.805Z,15.62
2017-10-17T17:18:58.281Z,15.56
2017-10-17T17:21:25.736Z,15.56
2017-10-17T17:23:53.254Z,15.51
2017-10-17T17:26:20.730Z,15.45
2017-10-17T17:28:48.187Z,15.40
2017-10-17T17:31:15.686Z,15.33
2017-10-17T17:33:43.164Z,15.30
2017-10-17T17:36:10.682Z,15.31
2017-10-17T17:38:38.167Z,15.28
2017-10-17T17:41:05.636Z,15.32
2017-10-17T17:43:33.115Z,15.28
2017-10-17T17:46:00.616Z,15.19
2017-10-17T17:48:28.107Z,15.15
2017-10-17T17:50:55.570Z,15.10
2017-10-17T17:53:23.066Z,15.06
2017-10-17T17:55:50.572Z,15.02
2017-10-17T17:58:18.049Z,15.03
2017-10-17T18:00:45.578Z,15.03
2017-10-17T18:03:13.068Z,14.99
2017-10-17T18:05:40.539Z,14.96
2017-10-17T18:08:08.033Z,14.93
2017-10-17T18:10:35.520Z,14.86
2017-10-17T18:13:03.019Z,14.79
2017-10-17T18:15:30.537Z,14.73
2017-10-17T18:17:58.019Z,14.69
2017-10-17T18:20:25.511Z,14.70
2017-10-17T18:22:53.044Z,14.69
2017-10-17T18:25:20.500Z,14.62
2017-10-17T18:27:47.968Z,14.59
2017-10-17T18:30:15.473Z,14.53
2017-10-17T18:32:42.968Z,14.48
2017-10-17T18:35:10.485Z,14.46
2017-10-17T18:37:38.015Z,14.44
2017-10-17T18:40:05.568Z,14.41
2017-10-17T18:42:33.045Z,14.42
2017-10-17T18:45:00.533Z,14.37
2017-10-17T18:47:28.011Z,14.35
2017-10-17T18:49:55.539Z,14.39
2017-10-17T18:52:23.109Z,14.42
2017-10-17T18:54:50.597Z,14.47
2017-10-17T18:57:18.089Z,14.46
2017-10-17T18:59:45.652Z,14.48
2017-10-17T19:02:13.145Z,14.46
2017-10-17T19:04:40.613Z,14.50
2017-10-17T19:07:08.131Z,14.49
2017-10-17T19:09:35.600Z,14.47
2017-10-17T19:12:03.059Z,14.48
2017-10-17T19:14:30.547Z,14.54
2017-10-17T19:16:58.046Z,14.56
2017-10-17T19:19:25.534Z,14.51
2017-10-17T19:21:53.047Z,14.53
2017-10-17T19:24:20.562Z,14.49
2017-10-17T19:26:48.039Z,14.40
2017-10-17T19:29:15.680Z,14.30
2017-10-17T19:31:43.226Z,14.24
2017-10-17T19:34:10.729Z,14.17
2017-10-17T19:36:38.226Z,14.20
2017-10-17T19:39:05.702Z,14.24
2017-10-17T19:41:33.170Z,14.28
2017-10-17T19:44:00.713Z,14.34
2017-10-17T19:46:28.224Z,14.43
2017-10-17T19:48:55.730Z,14.40
2017-10-17T19:51:23.250Z,14.40
2017-10-17T19:53:50.709Z,14.40
2017-10-17T19:56:18.186Z,14.37
2017-10-17T19:58:45.673Z,14.33
2017-10-17T20:01:13.152Z,14.31
2017-10-17T20:03:40.629Z,14.31
2017-10-17T20:06:08.107Z,14.29
2017-10-17T20:08:35.592Z,14.26
2017-10-17T20:11:03.136Z,14.24
2017-10-17T20:13:30.608Z,14.25
2017-10-17T20:15:58.081Z,14.22
2017-10-17T20:18:25.628Z,14.18
2017-10-17T20:20:53.158Z,14.14
2017-10-17T20:23:20.648Z,14.16
2017-10-17T20:25:48.116Z,14.13
2017-10-17T20:28:15.670Z,14.12
2017-10-17T20:30:43.233Z,14.06
2017-10-17T20:33:10.727Z,14.03
2017-10-17T20:35:38.221Z,14.04
2017-10-17T20:38:05.732Z,14.10
2017-10-17T20:40:33.243Z,14.13
2017-10-17T20:43:00.794Z,14.02
2017-10-17T20:45:28.263Z,14.00
2017-10-17T20:47:55.769Z,13.96
2017-10-17T20:50:23.256Z,13.91
2017-10-17T20:52:50.714Z,13.86
2017-10-17T20:55:18.177Z,13.83
2017-10-17T20:57:45.713Z,13.77
2017-10-17T21:00:13.200Z,13.65
2017-10-17T21:02:40.669Z,13.56
2017-10-17T21:05:08.173Z,13.47
2017-10-17T21:07:35.701Z,13.44
2017-10-17T21:10:03.191Z,13.39
2017-10-17T21:12:30.714Z,13.38
2017-10-17T21:14:58.191Z,13.37
2017-10-17T21:17:25.660Z,13.37
2017-10-17T21:19:53.145Z,13.34
2017-10-17T21:22:20.611Z,13.33
2017-10-17T21:24:48.100Z,13.30
2017-10-17T21:27:15.582Z,13.28
2017-10-17T21:29:43.145Z,13.26
2017-10-17T21:32:10.605Z,13.22
2017-10-17T21:34:38.126Z,13.20
2017-10-17T21:37:05.630Z,13.19
2017-10-17T21:39:33.105Z,13.20
2017-10-17T21:42:00.622Z,13.17
2017-10-17T21:44:28.103Z,13.13
2017-10-17T21:46:55.593Z,13.08
2017-10-17T21:49:23.103Z,13.03
2017-10-17T21:51:50.563Z,13.03
2017-10-17T21:54:18.046Z,12.98
2017-10-17T21:56:45.557Z,12.97
2017-10-17T21:59:13.013Z,12.97
2017-10-17T22:01:40.496Z,12.93
2017-10-17T22:04:07.970Z,12.88
2017-10-17T22:06:35.455Z,12.89
2017-10-17T22:09:02.957Z,12.91
2017-10-17T22:11:30.440Z,12.91
2017-10-17T22:13:57.932Z,12.85
2017-10-17T22:16:25.396Z,12.83
2017-10-17T22:21:26.741Z,12.81
2017-10-17T22:23:54.230Z,12.82
2017-10-17T22:26:21.692Z,12.76
2017-10-17T22:28:49.163Z,12.70
2017-10-17T22:31:16.680Z,12.63
2017-10-17T22:33:44.150Z,12.60
2017-10-17T22:36:11.608Z,12.54
2017-10-17T22:38:39.116Z,12.50
2017-10-17T22:41:06.581Z,12.47
2017-10-17T22:43:34.048Z,12.41
2017-10-17T22:46:01.624Z,12.36
2017-10-17T22:48:29.106Z,12.33
2017-10-17T22:50:56.576Z,12.31
2017-10-17T22:53:24.051Z,12.25
2017-10-17T22:55:51.528Z,12.22
2017-10-17T22:58:18.994Z,12.19
2017-10-17T23:00:47.330Z,12.19
2017-10-17T23:03:14.846Z,12.21
2017-10-17T23:05:42.334Z,12.23
2017-10-17T23:08:09.813Z,12.28
2017-10-17T23:10:37.278Z,12.28
2017-10-17T23:13:04.736Z,12.21
2017-10-17T23:15:32.222Z,12.14
2017-10-17T23:18:11.358Z,12.16
2017-10-17T23:20:38.993Z,12.20
2017-10-17T23:23:06.466Z,12.19
2017-10-17T23:25:33.938Z,12.23
2017-10-17T23:28:01.430Z,12.23
2017-10-17T23:30:28.908Z,12.28
2017-10-17T23:32:56.367Z,12.34
2017-10-17T23:35:23.852Z,12.31
2017-10-17T23:37:51.335Z,12.31
2017-10-17T23:40:18.793Z,12.29
2017-10-17T23:42:46.338Z,12.30
2017-10-17T23:45:13.819Z,12.32
2017-10-17T23:47:41.281Z,12.32
2017-10-17T23:50:08.809Z,12.35
2017-10-17T23:52:36.294Z,12.38
2017-10-17T23:55:03.778Z,12.34
2017-10-17T23:57:31.338Z,12.28
2017-10-17T23:59:58.812Z,12.23
